Time;durP1;ratioP1;P1;durP2;ratioP2;P2;SDS_P1;SDS_P2;PMS_P1;PMS_P2;Temp;Humidity;BMP_temperature;BMP_pressure;BME280_temperature;BME280_humidity;BME280_pressure;Samples;Min_cycle;Max_cycle;Signal;HPM_P1;HPM_P2
2023/10/21 00:00:17;;;;;;;1.42;0.93;;;;;;;9.80;96.92;93608.47;2090409;28;20049;-60
2023/10/21 00:01:18;;;;;;;2.95;0.95;;;;;;;9.81;97.51;93614.47;2090511;28;20053;-60
2023/10/21 00:02:19;;;;;;;1.52;1.17;;;;;;;9.81;97.31;93617.91;2090496;28;20061;-60
2023/10/21 00:03:20;;;;;;;2.00;1.00;;;;;;;9.84;97.02;93620.22;2090324;28;20060;-60
2023/10/21 00:04:22;;;;;;;1.48;0.90;;;;;;;9.85;96.97;93627.06;2090573;28;20060;-60
2023/10/21 00:05:25;;;;;;;1.40;0.98;;;;;;;9.87;96.86;93626.94;2090444;28;20048;-60
2023/10/21 00:06:26;;;;;;;1.38;0.82;;;;;;;9.90;96.43;93637.88;2090579;28;20049;-60
2023/10/21 00:07:27;;;;;;;1.35;0.80;;;;;;;9.92;96.34;93641.16;2090539;28;20461;-60
2023/10/21 00:08:28;;;;;;;2.88;0.90;;;;;;;9.95;96.56;93642.69;2090815;28;20049;-60
2023/10/21 00:09:29;;;;;;;1.10;0.77;;;;;;;9.91;95.82;93639.50;2090659;28;20052;-59
2023/10/21 00:10:30;;;;;;;2.53;1.00;;;;;;;9.93;96.05;93645.38;2091181;28;20060;-59
2023/10/21 00:11:31;;;;;;;1.20;0.80;;;;;;;9.91;95.63;93641.28;2090230;28;20056;-60
2023/10/21 00:12:33;;;;;;;2.60;1.15;;;;;;;9.92;95.18;93643.75;2090679;28;20400;-60
2023/10/21 00:13:35;;;;;;;1.40;0.93;;;;;;;9.92;95.79;93643.75;2090469;28;20052;-60
2023/10/21 00:14:36;;;;;;;4.53;1.10;;;;;;;9.93;95.68;93645.38;2090267;28;20409;-60
2023/10/21 00:15:39;;;;;;;2.80;1.00;;;;;;;9.97;95.51;93645.13;2090884;28;20056;-60
2023/10/21 00:16:40;;;;;;;1.85;1.10;;;;;;;9.98;95.67;93649.38;2089566;28;20119;-60
2023/10/21 00:17:41;;;;;;;3.72;1.30;;;;;;;9.99;95.66;93648.44;2090244;28;20041;-60
2023/10/21 00:18:42;;;;;;;1.45;1.10;;;;;;;9.98;95.32;93655.41;2090536;28;20037;-60
2023/10/21 00:19:43;;;;;;;1.48;1.02;;;;;;;9.97;95.28;93655.50;2090145;28;20508;-60
2023/10/21 00:20:44;;;;;;;2.50;1.20;;;;;;;9.95;95.03;93660.84;2090635;28;20053;-60
2023/10/21 00:21:47;;;;;;;1.65;1.13;;;;;;;9.92;95.01;93666.28;2090382;28;20401;-60
2023/10/21 00:22:48;;;;;;;1.52;1.20;;;;;;;9.88;95.66;93663.09;2090185;28;20049;-60
2023/10/21 00:23:49;;;;;;;1.70;1.10;;;;;;;9.89;95.29;93666.50;2090659;28;20048;-60
2023/10/21 00:24:51;;;;;;;2.17;0.93;;;;;;;9.89;95.89;93663.91;2090460;28;20059;-60
2023/10/21 00:25:52;;;;;;;1.60;1.05;;;;;;;9.88;96.30;93665.69;2090760;28;20056;-60
2023/10/21 00:26:53;;;;;;;2.25;1.35;;;;;;;9.87;96.32;93673.59;2089695;28;20045;-60
2023/10/21 00:27:54;;;;;;;2.17;1.10;;;;;;;9.87;96.37;93674.41;2089939;28;20048;-60
2023/10/21 00:28:55;;;;;;;2.67;1.08;;;;;;;9.86;96.15;93670.19;2089761;28;20052;-60
2023/10/21 00:29:56;;;;;;;3.25;1.30;;;;;;;9.87;96.73;93677.00;2081744;28;20401;-60
2023/10/21 00:30:57;;;;;;;3.63;1.55;;;;;;;9.87;95.92;93671.00;2089696;28;20743;-60
2023/10/21 00:31:58;;;;;;;3.67;1.30;;;;;;;9.86;96.40;93675.38;2090361;28;20067;-59
2023/10/21 00:32:59;;;;;;;1.70;1.13;;;;;;;9.87;95.61;93679.59;2090575;28;20045;-60
2023/10/21 00:34:00;;;;;;;3.33;1.00;;;;;;;9.88;95.62;93670.88;2090406;28;20048;-60
2023/10/21 00:35:02;;;;;;;2.13;1.30;;;;;;;9.88;95.93;93676.06;2090365;28;20044;-60
2023/10/21 00:36:04;;;;;;;2.13;1.13;;;;;;;9.86;95.82;93684.91;2090027;28;20052;-59
2023/10/21 00:37:07;;;;;;;1.70;1.10;;;;;;;9.81;95.95;93687.88;2090290;28;20053;-60
2023/10/21 00:38:08;;;;;;;1.90;1.17;;;;;;;9.82;96.04;93684.34;2089547;28;20064;-60
2023/10/21 00:39:12;;;;;;;3.85;1.73;;;;;;;9.80;96.25;93683.63;2089657;28;20053;-60
2023/10/21 00:40:13;;;;;;;2.50;1.20;;;;;;;9.79;96.36;93684.59;2089588;28;20060;-60
2023/10/21 00:41:15;;;;;;;3.05;1.45;;;;;;;9.79;95.93;93688.94;2089582;28;20060;-60
2023/10/21 00:42:16;;;;;;;1.33;0.98;;;;;;;9.77;96.52;93680.47;2090226;28;20041;-60
2023/10/21 00:43:36;;;;;;;3.90;1.30;;;;;;;9.75;96.48;93693.53;2090294;28;20061;-60
2023/10/21 00:44:38;;;;;;;2.05;1.27;;;;;;;9.73;96.06;93682.50;2089432;28;20052;-59
2023/10/21 00:45:39;;;;;;;1.45;1.10;;;;;;;9.71;96.76;93687.78;2089635;28;20052;-58
2023/10/21 00:46:40;;;;;;;2.60;1.65;;;;;;;9.69;96.30;93691.44;2090344;28;20049;-60
2023/10/21 00:47:41;;;;;;;2.03;1.10;;;;;;;9.67;96.85;93690.75;2090555;28;20367;-60
2023/10/21 00:48:44;;;;;;;1.90;1.40;;;;;;;9.66;97.12;93694.28;2089331;28;20056;-60
2023/10/21 00:49:45;;;;;;;2.05;1.27;;;;;;;9.66;97.22;93699.47;2089940;28;20052;-60
2023/10/21 00:50:46;;;;;;;1.52;1.13;;;;;;;9.62;96.86;93698.91;2089442;28;20049;-60
2023/10/21 00:51:47;;;;;;;2.95;1.38;;;;;;;9.61;97.64;93701.59;2089832;28;20040;-60
2023/10/21 00:52:49;;;;;;;3.10;1.67;;;;;;;9.62;97.32;93713.59;2088995;28;20045;-60
2023/10/21 00:53:50;;;;;;;3.30;1.35;;;;;;;9.60;97.66;93710.34;2088905;28;20064;-60
2023/10/21 00:54:51;;;;;;;2.70;1.73;;;;;;;9.58;97.32;93715.63;2090098;28;20057;-59
2023/10/21 00:55:52;;;;;;;2.47;1.42;;;;;;;9.58;98.00;93713.03;2089541;28;20540;-60
2023/10/21 00:56:56;;;;;;;2.40;1.50;;;;;;;9.58;98.09;93709.63;2089926;28;20056;-60
2023/10/21 00:57:57;;;;;;;1.90;1.30;;;;;;;9.58;98.17;93717.41;2090131;28;20049;-60
2023/10/21 00:58:58;;;;;;;3.00;1.52;;;;;;;9.56;98.29;93714.09;2089619;28;20049;-60
2023/10/21 00:59:59;;;;;;;2.30;1.48;;;;;;;9.56;98.03;93714.09;2089609;28;20099;-60
2023/10/21 01:01:02;;;;;;;3.75;1.80;;;;;;;9.56;98.20;93714.09;2090627;28;20060;-59
2023/10/21 01:02:03;;;;;;;3.92;1.70;;;;;;;9.57;98.28;93723.50;2090277;28;20068;-60
2023/10/21 01:03:04;;;;;;;3.00;1.30;;;;;;;9.54;97.79;93710.81;2090032;28;20467;-60
2023/10/21 01:04:05;;;;;;;2.10;1.50;;;;;;;9.56;98.35;93712.34;2081476;28;20481;-60
2023/10/21 01:05:06;;;;;;;2.53;1.50;;;;;;;9.59;97.45;93726.81;2081389;28;20057;-61
2023/10/21 01:06:07;;;;;;;2.45;1.50;;;;;;;9.57;97.77;93720.91;2090329;28;20045;-60
2023/10/21 01:07:16;;;;;;;1.92;1.48;;;;;;;9.59;97.53;93727.63;2089882;28;20049;-60
2023/10/21 01:08:17;;;;;;;;;;;;;;;9.60;97.71;93725.88;2090445;28;20492;-60
2023/10/21 01:09:18;;;;;;;3.80;1.60;;;;;;;9.60;97.38;93728.47;2090394;28;19913;-59
2023/10/21 01:10:20;;;;;;;2.50;1.70;;;;;;;9.59;97.31;93734.59;2089435;28;20053;-60
2023/10/21 01:11:21;;;;;;;2.55;1.45;;;;;;;9.58;97.23;93727.78;2089634;28;20057;-60
2023/10/21 01:12:22;;;;;;;2.38;1.55;;;;;;;9.58;97.33;93733.78;2089521;28;20053;-59
2023/10/21 01:13:23;;;;;;;2.60;1.52;;;;;;;9.57;97.46;93731.28;2081152;28;20049;-60
2023/10/21 01:14:25;;;;;;;2.63;1.63;;;;;;;9.57;97.40;93726.94;2089963;28;20071;-60
2023/10/21 01:15:26;;;;;;;4.40;1.65;;;;;;;9.57;97.08;93728.69;2098036;28;20036;-60
2023/10/21 01:16:28;;;;;;;3.65;1.60;;;;;;;9.57;96.89;93726.09;2089650;28;20061;-60
2023/10/21 01:17:29;;;;;;;2.53;1.40;;;;;;;9.57;97.44;93731.28;2089653;28;20045;-60
2023/10/21 01:18:33;;;;;;;2.67;1.42;;;;;;;9.55;97.25;93733.19;2090398;28;20049;-60
2023/10/21 01:19:34;;;;;;;2.00;1.40;;;;;;;9.54;97.36;93734.13;2090069;28;20044;-60
2023/10/21 01:20:39;;;;;;;3.55;1.52;;;;;;;9.52;97.00;93741.22;2090200;28;20150;-60
2023/10/21 01:21:40;;;;;;;2.88;1.38;;;;;;;9.50;97.11;93736.97;2090263;28;20044;-60
2023/10/21 01:22:41;;;;;;;2.90;1.52;;;;;;;9.52;96.91;93751.59;2090007;28;20056;-60
2023/10/21 01:23:42;;;;;;;1.88;1.40;;;;;;;9.53;97.27;93753.22;2090298;28;20048;-60
2023/10/21 01:24:44;;;;;;;2.95;1.30;;;;;;;9.54;96.49;93749.66;2090183;28;20378;-59
2023/10/21 01:25:45;;;;;;;2.22;1.42;;;;;;;9.57;96.25;93750.28;2090196;28;20044;-59
2023/10/21 01:26:46;;;;;;;2.95;1.20;;;;;;;9.60;95.90;93746.63;2090016;28;20064;-59
2023/10/21 01:27:48;;;;;;;2.35;1.27;;;;;;;9.61;95.80;93745.66;2089947;28;20048;-58
2023/10/21 01:28:49;;;;;;;4.38;1.23;;;;;;;9.62;95.85;93747.28;2073138;28;20045;-59
2023/10/21 01:29:50;;;;;;;5.57;1.48;;;;;;;9.63;95.62;93746.38;2081899;28;20041;-59
2023/10/21 01:30:51;;;;;;;1.92;1.10;;;;;;;9.64;95.24;93750.59;2089978;28;20049;-59
2023/10/21 01:31:52;;;;;;;2.30;1.40;;;;;;;9.64;95.60;93746.22;2090043;28;20065;-59
2023/10/21 01:32:53;;;;;;;1.40;1.20;;;;;;;9.66;95.45;93753.91;2090342;28;20045;-58
2023/10/21 01:33:54;;;;;;;2.35;1.38;;;;;;;9.69;95.22;93758.84;2089787;28;20386;-59
2023/10/21 01:34:55;;;;;;;3.00;1.63;;;;;;;9.69;94.97;93757.06;2090111;28;20052;-59
2023/10/21 01:35:57;;;;;;;1.58;1.13;;;;;;;9.71;93.99;93767.31;2089159;28;20052;-60
2023/10/21 01:36:59;;;;;;;2.63;1.65;;;;;;;9.75;94.43;93767.88;2081718;28;20057;-58
2023/10/21 01:38:00;;;;;;;3.60;1.13;;;;;;;9.75;94.14;93768.72;2089685;28;20052;-60
2023/10/21 01:39:01;;;;;;;3.20;1.40;;;;;;;9.78;93.56;93763.28;2089203;28;20045;-60
2023/10/21 01:40:02;;;;;;;2.92;1.23;;;;;;;9.79;93.37;93772.72;2081634;28;20057;-60
2023/10/21 01:41:03;;;;;;;1.90;1.25;;;;;;;9.81;93.29;93767.38;2089359;28;20064;-59
2023/10/21 01:42:04;;;;;;;2.20;1.27;;;;;;;9.81;93.31;93770.84;2089359;28;20056;-59
2023/10/21 01:43:05;;;;;;;2.28;1.17;;;;;;;9.82;92.92;93769.88;2090571;28;20052;-60
2023/10/21 01:44:07;;;;;;;2.40;1.30;;;;;;;9.85;93.33;93779.19;2090765;28;20060;-60
2023/10/21 01:45:08;;;;;;;2.05;1.20;;;;;;;9.83;92.91;93787.06;2091607;28;20155;-61
2023/10/21 01:46:09;;;;;;;3.15;1.35;;;;;;;9.84;92.50;93778.38;2091613;28;20401;-60
2023/10/21 01:47:10;;;;;;;2.20;1.50;;;;;;;9.81;92.94;93781.19;2091559;28;20061;-60
2023/10/21 01:48:12;;;;;;;2.58;1.23;;;;;;;9.81;93.30;93780.34;2091552;28;20040;-60
2023/10/21 01:49:13;;;;;;;1.70;1.25;;;;;;;9.77;93.13;93779.78;2091022;28;20060;-59
2023/10/21 01:50:14;;;;;;;2.15;1.30;;;;;;;9.77;93.98;93779.78;2091034;28;20041;-60
2023/10/21 01:51:15;;;;;;;1.95;1.27;;;;;;;9.78;94.18;93783.19;2091214;28;20049;-60
2023/10/21 01:52:16;;;;;;;2.88;1.30;;;;;;;9.77;93.34;93784.97;2091725;28;20489;-59
2023/10/21 01:53:17;;;;;;;1.98;1.40;;;;;;;9.76;93.41;93785.91;2091600;28;20064;-59
2023/10/21 01:54:18;;;;;;;2.40;1.40;;;;;;;9.76;93.99;93793.69;2091663;28;20063;-60
2023/10/21 01:55:19;;;;;;;5.22;1.50;;;;;;;9.74;93.35;93790.41;2091727;28;20057;-60
2023/10/21 01:56:20;;;;;;;2.58;1.40;;;;;;;9.73;93.69;93783.56;2091625;28;20037;-60
2023/10/21 01:57:22;;;;;;;3.75;1.52;;;;;;;9.77;93.97;93792.75;2091215;28;20509;-60
2023/10/21 01:58:23;;;;;;;2.33;1.23;;;;;;;9.79;94.18;93803.00;2082754;28;20049;-61
2023/10/21 01:59:24;;;;;;;2.85;1.30;;;;;;;9.79;93.90;93795.22;2082616;28;20050;-60
2023/10/21 02:00:26;;;;;;;2.70;1.38;;;;;;;9.79;93.44;93803.00;2082531;28;20517;-60
2023/10/21 02:01:27;;;;;;;2.13;1.40;;;;;;;9.75;94.25;93802.41;2082839;28;20049;-60
2023/10/21 02:02:29;;;;;;;2.33;1.20;;;;;;;9.78;93.85;93804.75;2082786;28;20041;-60
2023/10/21 02:03:30;;;;;;;2.28;1.08;;;;;;;9.80;93.55;93809.81;2082810;28;20049;-60
2023/10/21 02:04:32;;;;;;;1.90;1.20;;;;;;;9.77;93.59;93810.88;2091004;28;20528;-60
2023/10/21 02:05:33;;;;;;;2.10;0.95;;;;;;;9.81;93.27;93817.50;2091975;28;20048;-60
2023/10/21 02:06:34;;;;;;;2.08;1.20;;;;;;;9.82;93.92;93818.31;2090399;28;20428;-60
2023/10/21 02:07:36;;;;;;;2.10;1.10;;;;;;;9.74;94.06;93818.09;2090927;28;20056;-60
2023/10/21 02:08:39;;;;;;;1.63;1.10;;;;;;;9.78;93.90;93828.06;2082896;28;20397;-60
2023/10/21 02:09:40;;;;;;;2.10;1.17;;;;;;;9.82;93.66;93823.50;2090959;28;20051;-60
2023/10/21 02:10:41;;;;;;;2.25;1.30;;;;;;;9.81;93.32;93827.00;2091422;28;20053;-60
2023/10/21 02:11:42;;;;;;;2.13;1.25;;;;;;;9.83;94.14;93830.31;2091429;28;20440;-60
2023/10/21 02:12:43;;;;;;;1.60;1.13;;;;;;;9.87;93.01;93824.78;2092056;28;20056;-59
2023/10/21 02:13:44;;;;;;;1.38;0.98;;;;;;;9.93;92.03;93824.28;2090569;28;20151;-60
2023/10/21 02:14:46;;;;;;;3.13;1.40;;;;;;;9.97;92.79;93831.81;2082915;28;20045;-59
2023/10/21 02:15:47;;;;;;;3.03;1.10;;;;;;;9.99;92.59;93829.94;2082237;28;20532;-60
2023/10/21 02:16:51;;;;;;;2.38;1.00;;;;;;;10.01;92.23;93830.63;2090747;28;20064;-60
2023/10/21 02:17:52;;;;;;;2.92;1.10;;;;;;;10.02;91.80;93832.28;2090786;28;20061;-60
2023/10/21 02:18:54;;;;;;;1.92;0.80;;;;;;;10.03;91.42;93832.16;2090813;28;20056;-59
2023/10/21 02:19:58;;;;;;;1.55;0.82;;;;;;;10.06;91.38;93833.69;2090407;28;20048;-60
2023/10/21 02:20:59;;;;;;;1.45;0.90;;;;;;;10.10;90.38;93835.09;2083043;28;20057;-60
2023/10/21 02:22:00;;;;;;;1.60;0.95;;;;;;;10.11;90.65;93844.53;2082590;28;20057;-60
2023/10/21 02:23:01;;;;;;;1.83;1.00;;;;;;;10.12;90.34;93830.59;2090438;28;20064;-60
2023/10/21 02:24:02;;;;;;;2.53;0.80;;;;;;;10.14;89.98;93839.91;2090955;28;20389;-60
2023/10/21 02:25:13;;;;;;;1.50;1.00;;;;;;;10.17;89.81;93844.03;2091281;28;20052;-59
2023/10/21 02:26:14;;;;;;;1.42;1.00;;;;;;;10.15;90.22;93838.94;2098189;28;20045;-59
2023/10/21 02:27:15;;;;;;;1.45;0.80;;;;;;;10.15;90.32;93843.31;2090964;28;20061;-60
2023/10/21 02:28:17;;;;;;;1.58;0.90;;;;;;;10.12;90.10;93848.75;2090592;28;20052;-60
2023/10/21 02:29:18;;;;;;;1.42;1.00;;;;;;;10.09;90.49;93846.41;2082238;28;20484;-60
2023/10/21 02:30:19;;;;;;;3.05;0.88;;;;;;;10.06;90.50;93851.84;2083069;28;20064;-59
2023/10/21 02:31:20;;;;;;;3.17;0.93;;;;;;;10.03;90.54;93849.50;2090244;28;20073;-60
2023/10/21 02:32:22;;;;;;;2.88;1.02;;;;;;;9.99;90.82;93843.72;2082823;28;20049;-58
2023/10/21 02:33:23;;;;;;;1.75;1.20;;;;;;;10.02;91.46;93856.44;2090748;28;20048;-58
2023/10/21 02:34:24;;;;;;;1.10;0.73;;;;;;;10.00;90.99;93854.94;2090715;28;20053;-60
2023/10/21 02:35:25;;;;;;;1.98;1.20;;;;;;;9.96;91.36;93850.91;2083001;28;20057;-60
2023/10/21 02:36:27;;;;;;;1.70;0.98;;;;;;;9.95;91.56;93865.66;2082429;28;20053;-60
2023/10/21 02:37:28;;;;;;;1.80;1.00;;;;;;;9.96;91.85;93861.28;2090411;28;20068;-62
2023/10/21 02:38:29;;;;;;;1.65;0.80;;;;;;;9.92;92.83;93861.53;2091354;28;20045;-61
2023/10/21 02:39:30;;;;;;;2.65;1.10;;;;;;;9.93;92.17;93862.34;2091188;28;20048;-60
2023/10/21 02:40:31;;;;;;;3.35;1.05;;;;;;;9.93;92.58;93863.16;2091250;28;20037;-60
2023/10/21 02:41:32;;;;;;;2.08;0.85;;;;;;;9.90;92.45;93873.78;2091386;28;20484;-61
2023/10/21 02:42:34;;;;;;;4.78;1.10;;;;;;;9.89;92.34;93874.75;2091072;28;20055;-60
2023/10/21 02:43:35;;;;;;;1.60;0.93;;;;;;;9.88;92.09;93869.66;2090536;28;20531;-60
2023/10/21 02:44:36;;;;;;;2.97;1.00;;;;;;;9.87;92.93;93879.22;2090636;28;20052;-60
2023/10/21 02:45:38;;;;;;;2.42;0.75;;;;;;;9.83;92.55;93872.59;2090924;28;20049;-60
2023/10/21 02:46:39;;;;;;;1.70;1.02;;;;;;;9.80;93.29;93869.44;2090886;28;20049;-60
2023/10/21 02:47:40;;;;;;;2.83;1.10;;;;;;;9.81;92.60;93874.53;2091834;28;20123;-60
2023/10/21 02:48:43;;;;;;;1.90;0.95;;;;;;;9.78;92.65;93873.91;2091121;28;20048;-60
2023/10/21 02:49:44;;;;;;;2.60;0.93;;;;;;;9.80;92.92;93874.63;2091183;28;20037;-60
2023/10/21 02:50:45;;;;;;;2.72;1.05;;;;;;;9.80;93.06;93866.84;2091110;28;20041;-60
2023/10/21 02:51:47;;;;;;;2.22;0.75;;;;;;;9.79;92.80;93867.81;2091175;28;20047;-59
2023/10/21 02:52:51;;;;;;;1.77;1.02;;;;;;;9.77;92.62;93874.88;2090115;28;20378;-59
2023/10/21 02:53:52;;;;;;;4.45;1.00;;;;;;;9.75;92.62;93882.75;2090365;28;20044;-59
2023/10/21 02:54:53;;;;;;;1.27;0.90;;;;;;;9.75;93.39;93887.94;2090399;28;20048;-60
2023/10/21 02:55:54;;;;;;;2.70;1.25;;;;;;;9.77;93.15;93886.06;2091002;28;20049;-60
2023/10/21 02:56:55;;;;;;;2.20;0.90;;;;;;;9.77;92.76;93887.81;2091507;28;20507;-59
2023/10/21 02:57:56;;;;;;;1.60;0.88;;;;;;;9.78;93.48;93892.88;2091232;28;20041;-59
2023/10/21 02:58:57;;;;;;;1.30;0.80;;;;;;;9.76;93.04;93894.78;2090546;28;20048;-59
2023/10/21 02:59:58;;;;;;;1.90;1.02;;;;;;;9.78;92.92;93895.47;2089953;28;20512;-60
2023/10/21 03:01:16;;;;;;;2.13;1.13;;;;;;;9.78;92.67;93900.66;2091280;28;20060;-60
2023/10/21 03:02:17;;;;;;;2.67;0.98;;;;;;;9.76;92.34;93899.16;2089623;28;20061;-60
2023/10/21 03:03:19;;;;;;;1.73;0.95;;;;;;;9.77;92.40;93893.84;2090423;28;20060;-59
2023/10/21 03:04:20;;;;;;;1.50;0.80;;;;;;;9.77;91.88;93893.84;2091510;28;20456;-59
2023/10/21 03:05:22;;;;;;;1.10;0.75;;;;;;;9.79;91.75;93899.72;2090218;28;20057;-60
2023/10/21 03:06:23;;;;;;;1.05;0.73;;;;;;;9.81;91.82;93894.41;2090432;28;20079;-60
2023/10/21 03:07:24;;;;;;;2.92;0.70;;;;;;;9.80;91.35;93883.22;2090145;28;20063;-60
2023/10/21 03:08:25;;;;;;;1.13;0.80;;;;;;;9.81;91.53;93890.06;2090904;28;20049;-60
2023/10/21 03:09:26;;;;;;;2.25;1.00;;;;;;;9.80;91.69;93896.19;2091008;28;20493;-60
2023/10/21 03:10:28;;;;;;;1.25;0.90;;;;;;;9.80;91.39;93895.38;2090544;28;20053;-61
2023/10/21 03:11:29;;;;;;;3.65;1.00;;;;;;;9.78;91.83;93889.47;2090050;28;20075;-60
2023/10/21 03:12:30;;;;;;;1.60;0.90;;;;;;;9.77;91.88;93888.66;2091110;28;20048;-60
2023/10/21 03:13:32;;;;;;;1.23;0.80;;;;;;;9.74;91.72;93899.25;2090735;28;20052;-60
2023/10/21 03:14:33;;;;;;;2.35;0.95;;;;;;;9.71;91.61;93897.72;2090863;28;20481;-59
2023/10/21 03:15:34;;;;;;;3.70;1.10;;;;;;;9.66;91.63;93901.63;2090283;28;20052;-60
2023/10/21 03:16:36;;;;;;;1.92;1.05;;;;;;;9.62;92.02;93913.16;2089771;28;20052;-60
2023/10/21 03:17:37;;;;;;;3.13;1.10;;;;;;;9.57;92.48;93902.31;2091200;28;20060;-60
2023/10/21 03:18:40;;;;;;;3.97;1.13;;;;;;;9.52;92.67;93910.44;2091105;28;20045;-60
2023/10/21 03:19:41;;;;;;;1.77;0.98;;;;;;;9.47;93.11;93910.78;2090314;28;20045;-60
2023/10/21 03:20:42;;;;;;;1.30;0.80;;;;;;;9.42;93.20;93909.50;2090367;28;20712;-61
2023/10/21 03:21:45;;;;;;;1.50;0.80;;;;;;;9.42;93.09;93915.50;2090127;28;20056;-60
2023/10/21 03:22:46;;;;;;;1.88;0.98;;;;;;;9.40;93.42;93907.00;2082322;28;20409;-60
2023/10/21 03:23:47;;;;;;;3.55;1.00;;;;;;;9.41;93.18;93913.00;2090362;28;20033;-60
2023/10/21 03:24:48;;;;;;;2.58;1.10;;;;;;;9.41;93.53;93913.84;2091030;28;20044;-60
2023/10/21 03:25:59;;;;;;;1.33;0.85;;;;;;;9.42;92.89;93912.91;2090778;28;20040;-60
2023/10/21 03:27:00;;;;;;;2.20;0.88;;;;;;;9.45;93.04;93914.44;2090520;28;20401;-59
2023/10/21 03:28:01;;;;;;;1.55;1.00;;;;;;;9.48;92.78;93914.19;2090840;28;20053;-60
2023/10/21 03:29:03;;;;;;;1.88;0.90;;;;;;;9.52;92.57;93920.00;2091004;28;20048;-60
2023/10/21 03:30:04;;;;;;;2.60;0.90;;;;;;;9.50;92.12;93928.69;2090747;28;20053;-60
2023/10/21 03:31:05;;;;;;;1.95;0.95;;;;;;;9.49;92.27;93916.69;2091191;28;20060;-60
2023/10/21 03:32:07;;;;;;;1.35;0.80;;;;;;;9.57;92.01;93920.44;2091024;28;20051;-60
2023/10/21 03:33:08;;;;;;;1.45;0.98;;;;;;;9.56;92.29;93923.97;2090090;28;20056;-60
2023/10/21 03:34:09;;;;;;;1.80;1.02;;;;;;;9.59;92.06;93921.16;2090319;28;20052;-60
2023/10/21 03:35:10;;;;;;;1.17;0.85;;;;;;;9.61;91.05;93925.28;2090820;28;20049;-60
2023/10/21 03:36:11;;;;;;;1.60;0.70;;;;;;;9.64;91.45;93929.41;2090805;28;20057;-60
2023/10/21 03:37:12;;;;;;;1.13;0.80;;;;;;;9.67;91.25;93935.16;2090833;28;20048;-60
2023/10/21 03:38:14;;;;;;;1.20;0.73;;;;;;;9.67;91.35;93934.34;2090496;28;20524;-60
2023/10/21 03:39:15;;;;;;;2.00;1.10;;;;;;;9.65;91.09;93931.03;2089950;28;20060;-60
2023/10/21 03:40:16;;;;;;;2.33;0.80;;;;;;;9.61;91.05;93930.47;2090040;28;20053;-60
2023/10/21 03:41:17;;;;;;;1.70;0.82;;;;;;;9.61;91.56;93927.06;2090744;28;20053;-60
2023/10/21 03:42:20;;;;;;;2.65;0.73;;;;;;;9.61;91.57;93929.66;2089995;28;20413;-60
2023/10/21 03:43:22;;;;;;;3.92;0.82;;;;;;;9.57;91.77;93929.06;2090102;28;20056;-60
2023/10/21 03:44:23;;;;;;;1.40;0.98;;;;;;;9.53;91.70;93929.41;2090177;28;20045;-60
2023/10/21 03:45:24;;;;;;;2.72;1.08;;;;;;;9.49;92.08;93928.81;2090063;28;20515;-60
2023/10/21 03:46:25;;;;;;;3.00;0.88;;;;;;;9.46;91.82;93927.28;2082124;28;20056;-60
2023/10/21 03:47:26;;;;;;;2.10;1.17;;;;;;;9.46;92.40;93929.03;2090570;28;20063;-60
2023/10/21 03:48:28;;;;;;;1.63;0.80;;;;;;;9.46;92.02;93932.47;2090763;28;20155;-60
2023/10/21 03:49:30;;;;;;;1.17;0.80;;;;;;;9.45;92.05;93933.38;2090309;28;20440;-60
2023/10/21 03:50:31;;;;;;;0.77;0.70;;;;;;;9.47;91.44;93933.28;2090026;28;20501;-63
2023/10/21 03:51:32;;;;;;;1.02;0.77;;;;;;;9.48;92.01;93930.56;2090817;28;20131;-60
2023/10/21 03:52:33;;;;;;;3.78;0.95;;;;;;;9.49;91.58;93924.47;2090088;28;20053;-63
2023/10/21 03:53:35;;;;;;;2.85;0.90;;;;;;;9.50;91.54;93930.47;2091881;28;20045;-59
2023/10/21 03:54:36;;;;;;;4.43;0.80;;;;;;;9.50;91.66;93927.88;2091106;28;20056;-61
2023/10/21 03:55:37;;;;;;;2.45;0.85;;;;;;;9.49;91.32;93932.22;2091619;28;20164;-59
2023/10/21 03:56:38;;;;;;;1.30;0.90;;;;;;;9.50;91.65;93933.88;2091262;28;20041;-59
2023/10/21 03:57:39;;;;;;;2.78;0.80;;;;;;;9.52;91.06;93941.53;2092139;28;20371;-60
2023/10/21 03:58:41;;;;;;;0.90;0.70;;;;;;;9.49;91.38;93937.41;2091692;28;20045;-60
2023/10/21 03:59:42;;;;;;;2.00;1.10;;;;;;;9.56;91.26;93942.94;2091348;28;20045;-60
2023/10/21 04:00:43;;;;;;;1.65;0.88;;;;;;;9.57;90.61;93947.19;2091640;28;20477;-60
2023/10/21 04:01:44;;;;;;;1.35;0.82;;;;;;;9.57;91.24;93948.94;2091704;28;20048;-60
2023/10/21 04:02:45;;;;;;;2.78;0.70;;;;;;;9.60;90.56;93954.75;2091757;28;20044;-60
2023/10/21 04:03:47;;;;;;;1.10;0.68;;;;;;;9.64;90.67;93958.72;2091379;28;20045;-60
2023/10/21 04:04:48;;;;;;;2.70;0.80;;;;;;;9.67;90.29;93955.09;2091820;28;20083;-60
2023/10/21 04:05:50;;;;;;;2.03;0.70;;;;;;;9.68;90.28;93954.16;2090849;28;20051;-62
2023/10/21 04:06:51;;;;;;;1.98;0.60;;;;;;;9.71;89.73;93964.28;2091461;28;20043;-59
2023/10/21 04:07:52;;;;;;;1.98;0.60;;;;;;;9.71;89.81;93969.47;2090632;28;20386;-60
2023/10/21 04:08:53;;;;;;;1.63;0.70;;;;;;;9.68;89.91;93962.75;2090627;28;20056;-60
2023/10/21 04:09:54;;;;;;;1.40;0.80;;;;;;;9.70;89.81;93967.81;2090559;28;20049;-60
2023/10/21 04:10:55;;;;;;;2.00;0.80;;;;;;;9.72;89.72;93973.69;2090661;28;20044;-60
2023/10/21 04:11:56;;;;;;;1.20;0.70;;;;;;;9.75;89.17;93976.06;2090502;28;20052;-60
2023/10/21 04:12:58;;;;;;;1.40;0.80;;;;;;;9.77;89.01;93971.59;2091011;28;20389;-60
2023/10/21 04:13:59;;;;;;;1.77;0.50;;;;;;;9.77;89.03;93981.97;2090661;28;20053;-60
2023/10/21 04:15:00;;;;;;;1.38;0.80;;;;;;;9.77;88.73;93978.56;2090198;28;20063;-60
2023/10/21 04:16:03;;;;;;;0.70;0.40;;;;;;;9.76;89.03;93980.31;2090962;28;20377;-60
2023/10/21 04:17:05;;;;;;;1.75;0.70;;;;;;;9.84;88.61;93980.56;2090458;28;20053;-60
2023/10/21 04:18:06;;;;;;;0.98;0.60;;;;;;;9.84;88.23;93984.94;2090414;28;20057;-60
2023/10/21 04:19:08;;;;;;;0.80;0.60;;;;;;;9.89;88.39;93983.63;2091117;28;20045;-60
2023/10/21 04:20:10;;;;;;;1.63;0.70;;;;;;;9.88;88.61;93987.16;2090154;28;20064;-60
2023/10/21 04:21:11;;;;;;;2.67;0.63;;;;;;;9.90;88.27;93995.63;2090385;28;20524;-59
2023/10/21 04:22:12;;;;;;;2.40;0.88;;;;;;;9.90;87.66;93995.63;2090772;28;20049;-59
2023/10/21 04:23:13;;;;;;;1.65;0.73;;;;;;;9.89;88.38;93995.75;2090645;28;20049;-60
2023/10/21 04:24:15;;;;;;;1.20;0.70;;;;;;;9.91;87.39;93992.09;2090769;28;20060;-60
2023/10/21 04:25:16;;;;;;;0.88;0.60;;;;;;;9.95;87.95;94000.47;2090549;28;20052;-59
2023/10/21 04:26:17;;;;;;;0.95;0.60;;;;;;;9.92;87.88;94001.53;2090050;28;20049;-60
2023/10/21 04:27:18;;;;;;;1.25;0.75;;;;;;;9.85;88.47;93996.94;2089596;28;20053;-60
2023/10/21 04:28:19;;;;;;;2.83;0.70;;;;;;;9.83;88.09;94009.19;2090445;28;20044;-60
2023/10/21 04:29:21;;;;;;;0.55;0.50;;;;;;;9.81;88.41;94000.69;2090118;28;20057;-60
2023/10/21 04:30:23;;;;;;;0.88;0.40;;;;;;;9.77;88.41;94001.88;2090450;28;20404;-60
2023/10/21 04:31:24;;;;;;;1.10;0.60;;;;;;;9.72;89.19;94004.81;2091091;28;20155;-60
2023/10/21 04:32:25;;;;;;;1.00;0.50;;;;;;;9.68;89.43;94006.00;2090369;28;20424;-60
2023/10/21 04:33:26;;;;;;;1.98;0.77;;;;;;;9.67;89.25;94007.75;2090315;28;20057;-60
2023/10/21 04:34:27;;;;;;;2.95;0.57;;;;;;;9.63;89.06;94019.28;2090264;28;20048;-60
2023/10/21 04:35:28;;;;;;;0.95;0.50;;;;;;;9.64;89.74;94009.75;2090542;28;20041;-60
2023/10/21 04:36:29;;;;;;;1.15;0.65;;;;;;;9.76;88.56;94014.00;2090579;28;20092;-59
2023/10/21 04:37:31;;;;;;;1.33;0.73;;;;;;;9.74;89.26;94012.47;2090616;28;20053;-60
2023/10/21 04:38:32;;;;;;;2.05;0.70;;;;;;;9.68;89.47;94016.38;2090404;28;20413;-60
2023/10/21 04:39:33;;;;;;;1.52;0.70;;;;;;;9.68;89.27;94021.53;2090303;28;20060;-59
2023/10/21 04:40:34;;;;;;;1.35;0.75;;;;;;;9.64;89.41;94018.34;2089145;28;20053;-60
2023/10/21 04:41:35;;;;;;;1.50;0.60;;;;;;;9.61;90.02;94021.16;2089965;28;20033;-60
2023/10/21 04:42:36;;;;;;;1.20;0.50;;;;;;;9.60;89.40;94022.13;2090518;28;20060;-60
2023/10/21 04:43:37;;;;;;;2.42;0.63;;;;;;;9.61;89.71;94021.16;2090783;28;20396;-60
2023/10/21 04:44:38;;;;;;;1.65;0.63;;;;;;;9.59;89.01;94010.09;2090548;28;20047;-60
2023/10/21 04:45:40;;;;;;;2.42;0.70;;;;;;;9.62;89.04;94020.25;2090361;28;20041;-60
2023/10/21 04:46:41;;;;;;;1.00;0.60;;;;;;;9.61;89.32;94018.56;2090184;28;20061;-60
2023/10/21 04:47:42;;;;;;;2.67;0.70;;;;;;;9.60;89.16;94021.28;2090498;28;20571;-59
2023/10/21 04:48:43;;;;;;;1.10;0.80;;;;;;;9.58;90.04;94025.75;2090229;28;20477;-59
2023/10/21 04:49:44;;;;;;;1.08;0.52;;;;;;;9.57;89.30;94027.53;2090446;28;20044;-59
2023/10/21 04:50:45;;;;;;;1.23;0.60;;;;;;;9.57;90.02;94026.69;2089897;28;20076;-60
2023/10/21 04:51:46;;;;;;;1.65;0.80;;;;;;;9.51;89.55;94025.38;2090333;28;20400;-60
2023/10/21 04:52:47;;;;;;;1.40;0.63;;;;;;;9.52;90.17;94026.22;2090172;28;20049;-60